createdAt,value
2023-02-23T00:00:29.531Z,100315.13
2023-02-23T00:03:01.074Z,100320.03
2023-02-23T00:05:30.883Z,100315.53
2023-02-23T00:07:59.116Z,100313.56
2023-02-23T00:10:30.489Z,100328.31
2023-02-23T00:12:59.294Z,100318.69
2023-02-23T00:15:29.913Z,100322.19
2023-02-23T00:17:58.792Z,100321.19
2023-02-23T00:20:27.550Z,100319.47
2023-02-23T00:22:56.090Z,100332.72
2023-02-23T00:25:24.393Z,100332.84
2023-02-23T00:27:52.779Z,100324.28
2023-02-23T00:30:21.259Z,100323.63
2023-02-23T00:32:52.494Z,100318.94
2023-02-23T00:35:20.195Z,100325.00
2023-02-23T00:37:49.722Z,100320.28
2023-02-23T00:40:21.422Z,100313.22
2023-02-23T00:42:49.876Z,100318.78
2023-02-23T00:45:17.608Z,100319.81
2023-02-23T00:47:48.450Z,100317.63
2023-02-23T00:50:19.356Z,100316.22
2023-02-23T00:52:46.975Z,100314.94
2023-02-23T00:55:16.199Z,100312.28
2023-02-23T00:57:43.915Z,100313.03
2023-02-23T01:00:18.733Z,100321.63
2023-02-23T01:02:46.406Z,100311.59
2023-02-23T01:05:14.102Z,100327.56
2023-02-23T01:07:46.540Z,100317.78
2023-02-23T01:10:20.290Z,100322.91
2023-02-23T01:12:49.673Z,100326.25
2023-02-23T01:15:18.533Z,100320.69
2023-02-23T01:17:46.995Z,100326.31
2023-02-23T01:20:18.792Z,100326.88
2023-02-23T01:22:50.107Z,100315.53
2023-02-23T01:25:18.678Z,100324.47
2023-02-23T01:27:46.669Z,100320.53
2023-02-23T01:30:16.466Z,100319.63
2023-02-23T01:32:44.123Z,100322.56
2023-02-23T01:35:13.858Z,100326.88
2023-02-23T01:37:43.481Z,100324.13
2023-02-23T01:40:16.697Z,100328.94
2023-02-23T01:42:46.148Z,100320.47
2023-02-23T01:45:24.751Z,100316.09
2023-02-23T01:47:54.549Z,100315.19
2023-02-23T01:50:22.602Z,100314.00
2023-02-23T01:52:52.318Z,100304.94
2023-02-23T01:55:24.427Z,100307.81
2023-02-23T01:57:54.935Z,100310.91
2023-02-23T02:00:26.106Z,100305.31
2023-02-23T02:02:53.911Z,100304.72
2023-02-23T02:05:21.946Z,100307.34
2023-02-23T02:07:58.450Z,100312.53
2023-02-23T02:10:44.160Z,100306.56
2023-02-23T02:13:15.729Z,100310.56
2023-02-23T02:15:55.108Z,100313.41
2023-02-23T02:18:30.690Z,100310.25
2023-02-23T02:21:19.055Z,100304.94
2023-02-23T02:24:13.394Z,100303.72
2023-02-23T02:26:53.626Z,100303.31
2023-02-23T02:29:48.070Z,100305.72
2023-02-23T02:32:47.398Z,100303.69
2023-02-23T02:35:38.103Z,100299.97
2023-02-23T02:38:23.377Z,100298.72
2023-02-23T02:40:54.821Z,100300.63
2023-02-23T02:43:27.997Z,100298.78
2023-02-23T02:45:58.114Z,100298.72
2023-02-23T02:48:33.218Z,100299.19
2023-02-23T02:51:09.440Z,100313.28
2023-02-23T02:53:43.029Z,100305.28
2023-02-23T02:56:11.164Z,100302.81
2023-02-23T02:58:39.384Z,100301.84
2023-02-23T03:01:26.231Z,100302.00
2023-02-23T03:04:11.625Z,100301.47
2023-02-23T03:07:03.969Z,100301.53
2023-02-23T03:09:55.100Z,100298.19
2023-02-23T03:12:46.024Z,100300.22
2023-02-23T03:15:41.187Z,100296.88
2023-02-23T03:18:40.840Z,100304.50
2023-02-23T03:21:32.911Z,100303.13
2023-02-23T03:24:22.956Z,100301.28
2023-02-23T03:27:12.494Z,100302.28
2023-02-23T03:30:01.303Z,100301.03
2023-02-23T03:32:49.160Z,100297.59
2023-02-23T03:35:40.094Z,100303.97
2023-02-23T03:38:28.925Z,100310.81
2023-02-23T03:41:14.892Z,100306.28
2023-02-23T03:44:06.048Z,100308.78
2023-02-23T03:46:51.857Z,100306.88
2023-02-23T03:49:37.716Z,100303.78
2023-02-23T03:52:27.687Z,100312.28
2023-02-23T03:55:15.586Z,100311.28
2023-02-23T03:58:02.392Z,100309.25
2023-02-23T04:00:51.970Z,100309.16
2023-02-23T04:03:37.941Z,100307.59
2023-02-23T04:06:27.063Z,100306.38
2023-02-23T04:09:12.877Z,100304.91
2023-02-23T04:12:01.420Z,100302.41
2023-02-23T04:14:31.689Z,100306.75
2023-02-23T04:16:59.679Z,100309.16
2023-02-23T04:19:28.239Z,100301.81
2023-02-23T04:21:55.894Z,100309.72
2023-02-23T04:24:23.544Z,100310.09
2023-02-23T04:26:51.210Z,100309.38
2023-02-23T04:29:18.807Z,100309.97
2023-02-23T04:31:47.369Z,100308.78
2023-02-23T04:34:16.447Z,100308.59
2023-02-23T04:36:44.065Z,100311.63
2023-02-23T04:39:11.921Z,100317.81
2023-02-23T04:41:39.607Z,100317.09
2023-02-23T04:44:07.351Z,100315.84
2023-02-23T04:46:35.113Z,100314.81
2023-02-23T04:49:03.807Z,100317.22
2023-02-23T04:51:34.003Z,100325.88
2023-02-23T04:54:02.392Z,100320.97
2023-02-23T04:56:30.181Z,100320.19
2023-02-23T04:58:57.979Z,100322.84
2023-02-23T05:01:25.770Z,100329.03
2023-02-23T05:03:53.535Z,100320.59
2023-02-23T05:06:21.194Z,100320.00
2023-02-23T05:08:50.223Z,100321.84
2023-02-23T05:11:18.216Z,100318.84
2023-02-23T05:13:46.009Z,100319.34
2023-02-23T05:16:13.876Z,100321.19
2023-02-23T05:18:41.605Z,100322.44
2023-02-23T05:21:09.852Z,100318.88
2023-02-23T05:23:38.439Z,100324.06
2023-02-23T05:26:10.046Z,100328.16
2023-02-23T05:28:39.512Z,100324.88
2023-02-23T05:31:07.730Z,100337.28
2023-02-23T05:33:42.301Z,100336.88
2023-02-23T05:36:11.830Z,100329.84
2023-02-23T05:38:39.749Z,100331.00
2023-02-23T05:41:09.627Z,100333.22
2023-02-23T05:43:37.252Z,100335.53
2023-02-23T05:46:08.066Z,100333.03
2023-02-23T05:48:36.131Z,100334.78
2023-02-23T05:51:04.351Z,100331.00
2023-02-23T05:53:32.467Z,100332.75
2023-02-23T05:56:00.143Z,100331.91
2023-02-23T05:58:29.435Z,100327.41
2023-02-23T06:00:57.166Z,100338.47
2023-02-23T06:03:24.865Z,100334.75
2023-02-23T06:05:53.092Z,100341.75
2023-02-23T06:08:20.920Z,100341.56
2023-02-23T06:10:48.737Z,100334.56
2023-02-23T06:13:16.771Z,100338.47
2023-02-23T06:15:46.047Z,100339.38
2023-02-23T06:18:14.068Z,100346.06
2023-02-23T06:20:41.751Z,100341.34
2023-02-23T06:23:09.645Z,100344.84
2023-02-23T06:25:37.260Z,100358.22
2023-02-23T06:28:05.675Z,100358.63
2023-02-23T06:30:33.319Z,100362.31
2023-02-23T06:33:02.766Z,100358.84
2023-02-23T06:35:30.510Z,100364.84
2023-02-23T06:37:58.122Z,100365.22
2023-02-23T06:40:25.765Z,100367.28
2023-02-23T06:42:53.445Z,100370.59
2023-02-23T06:45:21.079Z,100378.03
2023-02-23T06:47:49.042Z,100380.88
2023-02-23T06:50:18.808Z,100376.75
2023-02-23T06:52:46.654Z,100380.88
2023-02-23T06:55:14.439Z,100381.50
2023-02-23T06:57:42.685Z,100382.94
2023-02-23T07:00:12.672Z,100380.44
2023-02-23T07:02:40.353Z,100378.84
2023-02-23T07:05:08.695Z,100390.38
2023-02-23T07:07:37.948Z,100391.19
2023-02-23T07:10:06.843Z,100392.44
2023-02-23T07:12:34.600Z,100396.09
2023-02-23T07:15:02.214Z,100389.09
2023-02-23T07:17:29.805Z,100395.53
2023-02-23T07:19:57.557Z,100398.03
2023-02-23T07:22:30.301Z,100400.25
2023-02-23T07:24:59.371Z,100407.66
2023-02-23T07:27:27.701Z,100414.84
2023-02-23T07:29:55.498Z,100402.94
2023-02-23T07:32:23.295Z,100412.81
2023-02-23T07:34:53.691Z,100406.84
2023-02-23T07:37:21.976Z,100410.97
2023-02-23T07:39:49.681Z,100410.72
2023-02-23T07:42:18.757Z,100410.53
2023-02-23T07:44:46.446Z,100412.97
2023-02-23T07:47:14.160Z,100419.56
2023-02-23T07:49:42.271Z,100426.16
2023-02-23T07:52:09.952Z,100420.41
2023-02-23T07:54:37.674Z,100431.91
2023-02-23T07:57:05.382Z,100428.59
2023-02-23T07:59:34.653Z,100427.19
2023-02-23T08:02:02.420Z,100429.84
2023-02-23T08:04:30.130Z,100430.84
2023-02-23T08:06:57.831Z,100434.38
2023-02-23T08:09:25.691Z,100428.84
2023-02-23T08:11:53.381Z,100429.84
2023-02-23T08:14:23.738Z,100431.50
2023-02-23T08:16:52.898Z,100440.56
2023-02-23T08:19:22.845Z,100442.00
2023-02-23T08:21:51.070Z,100450.84
2023-02-23T08:24:18.920Z,100451.44
2023-02-23T08:26:46.632Z,100449.38
2023-02-23T08:29:14.361Z,100459.47
2023-02-23T08:31:42.236Z,100456.97
2023-02-23T08:34:11.595Z,100461.28
2023-02-23T08:36:40.258Z,100452.88
2023-02-23T08:39:10.062Z,100458.03
2023-02-23T08:41:37.761Z,100459.03
2023-02-23T08:44:05.484Z,100467.84
2023-02-23T08:46:33.622Z,100457.00
2023-02-23T08:49:01.419Z,100472.63
2023-02-23T08:51:30.616Z,100461.72
2023-02-23T08:53:58.252Z,100470.38
2023-02-23T08:56:27.054Z,100466.66
2023-02-23T08:58:55.009Z,100470.13
2023-02-23T09:01:23.118Z,100470.09
2023-02-23T09:03:51.378Z,100472.22
2023-02-23T09:06:21.371Z,100470.56
2023-02-23T09:08:50.768Z,100468.69
2023-02-23T09:11:18.903Z,100469.13
2023-02-23T09:13:47.000Z,100474.81
2023-02-23T09:16:15.007Z,100475.66
2023-02-23T09:18:43.406Z,100471.78
2023-02-23T09:21:18.887Z,100474.69
2023-02-23T09:23:48.243Z,100482.03
2023-02-23T09:26:18.892Z,100483.59
2023-02-23T09:28:47.107Z,100479.13
2023-02-23T09:31:16.526Z,100479.34
2023-02-23T09:33:44.490Z,100485.28
2023-02-23T09:36:16.269Z,100489.81
2023-02-23T09:38:44.634Z,100488.81
2023-02-23T09:41:44.070Z,100489.84
2023-02-23T09:44:17.505Z,100495.59
2023-02-23T09:46:51.677Z,100490.44
2023-02-23T09:49:21.740Z,100489.22
2023-02-23T09:51:55.378Z,100498.13
2023-02-23T09:54:24.183Z,100492.66
2023-02-23T09:56:56.326Z,100503.03
2023-02-23T09:59:25.210Z,100510.28
2023-02-23T10:02:00.311Z,100514.97
2023-02-23T10:04:30.325Z,100516.00
2023-02-23T10:07:01.375Z,100511.50
2023-02-23T10:09:45.625Z,100503.88
2023-02-23T10:12:19.799Z,100501.81
2023-02-23T10:15:00.289Z,100519.28
2023-02-23T10:17:37.588Z,100506.34
2023-02-23T10:20:15.071Z,100512.53
2023-02-23T10:22:43.578Z,100514.16
2023-02-23T10:25:14.055Z,100511.72
2023-02-23T10:27:45.426Z,100513.75
2023-02-23T10:30:20.358Z,100513.75
2023-02-23T10:32:52.922Z,100521.56
2023-02-23T10:35:22.450Z,100518.88
2023-02-23T10:37:51.875Z,100518.47
2023-02-23T10:40:22.980Z,100522.59
2023-02-23T10:42:52.816Z,100517.44
2023-02-23T10:45:24.712Z,100523.19
2023-02-23T10:47:56.537Z,100531.41
2023-02-23T10:50:27.601Z,100524.00
2023-02-23T10:52:58.204Z,100528.50
2023-02-23T10:55:27.878Z,100533.06
2023-02-23T10:58:17.056Z,100531.84
2023-02-23T11:00:53.276Z,100532.66
2023-02-23T11:03:26.491Z,100534.69
2023-02-23T11:05:59.781Z,100533.22
2023-02-23T11:08:30.509Z,100533.22
2023-02-23T11:11:00.787Z,100531.84
2023-02-23T11:13:34.794Z,100528.53
2023-02-23T11:16:04.513Z,100534.69
2023-02-23T11:18:32.505Z,100530.19
2023-02-23T11:21:00.276Z,100536.97
2023-02-23T11:23:30.195Z,100538.03
2023-02-23T11:26:01.274Z,100531.03
2023-02-23T11:28:32.887Z,100530.59
2023-02-23T11:31:03.938Z,100530.19
2023-02-23T11:33:36.123Z,100533.47
2023-02-23T11:36:19.648Z,100520.31
2023-02-23T11:38:47.999Z,100518.69
2023-02-23T11:41:22.001Z,100520.75
2023-02-23T11:43:52.825Z,100531.22
2023-02-23T11:46:22.858Z,100521.56
2023-02-23T11:48:54.142Z,100518.69
2023-02-23T11:51:26.576Z,100526.72
2023-02-23T11:53:54.371Z,100518.06
2023-02-23T11:56:25.548Z,100529.38
2023-02-23T11:58:57.685Z,100518.28
2023-02-23T12:01:36.857Z,100511.69
2023-02-23T12:04:04.978Z,100519.94
2023-02-23T12:06:34.394Z,100514.97
2023-02-23T12:09:07.920Z,100512.13
2023-02-23T12:11:39.528Z,100512.31
2023-02-23T12:14:13.582Z,100515.41
2023-02-23T12:16:44.766Z,100514.59
2023-02-23T12:19:24.074Z,100516.22
2023-02-23T12:21:57.574Z,100509.84
2023-02-23T12:24:40.220Z,100515.81
2023-02-23T12:27:13.669Z,100519.50
2023-02-23T12:29:56.752Z,100528.13
2023-02-23T12:32:27.926Z,100524.03
2023-02-23T12:34:57.804Z,100524.03
2023-02-23T12:37:37.072Z,100524.84
2023-02-23T12:40:13.690Z,100526.50
2023-02-23T12:42:46.649Z,100531.41
2023-02-23T12:45:21.695Z,100521.56
2023-02-23T12:47:55.036Z,100523.81
2023-02-23T12:50:28.527Z,100526.06
2023-02-23T12:52:58.749Z,100518.88
2023-02-23T12:55:38.394Z,100517.06
2023-02-23T12:58:09.915Z,100522.81
2023-02-23T13:00:44.505Z,100523.41
2023-02-23T13:03:25.082Z,100528.34
2023-02-23T13:05:58.003Z,100520.31
2023-02-23T13:08:32.736Z,100520.13
2023-02-23T13:11:07.478Z,100519.91
2023-02-23T13:13:40.750Z,100525.69
2023-02-23T13:16:13.408Z,100533.69
2023-02-23T13:18:47.379Z,100542.94
2023-02-23T13:21:20.698Z,100543.97
2023-02-23T13:23:56.222Z,100535.31
2023-02-23T13:26:30.170Z,100548.09
2023-02-23T13:29:01.455Z,100540.44
2023-02-23T13:31:33.557Z,100543.28
2023-02-23T13:34:03.293Z,100541.06
2023-02-23T13:36:33.362Z,100547.59
2023-02-23T13:39:29.945Z,100549.91
2023-02-23T13:42:10.520Z,100553.38
2023-02-23T13:44:40.693Z,100552.34
2023-02-23T13:47:19.258Z,100543.91
2023-02-23T13:49:51.196Z,100544.13
2023-02-23T13:52:27.961Z,100547.88
2023-02-23T13:54:58.764Z,100551.13
2023-02-23T13:57:28.446Z,100551.72
2023-02-23T13:59:56.257Z,100555.16
2023-02-23T14:02:34.667Z,100552.94
2023-02-23T14:05:08.219Z,100548.16
2023-02-23T14:07:42.339Z,100546.97
2023-02-23T14:10:15.859Z,100545.75
2023-02-23T14:12:45.267Z,100545.94
2023-02-23T14:15:44.294Z,100555.16
2023-02-23T14:18:32.349Z,100552.25
2023-02-23T14:21:09.785Z,100552.50
2023-02-23T14:23:40.679Z,100551.50
2023-02-23T14:26:15.728Z,100551.06
2023-02-23T14:28:46.819Z,100554.56
2023-02-23T14:31:22.478Z,100550.25
2023-02-23T14:33:55.750Z,100552.94
2023-02-23T14:36:35.901Z,100552.72
2023-02-23T14:39:06.872Z,100549.97
2023-02-23T14:41:40.863Z,100561.25
2023-02-23T14:44:20.183Z,100565.69
2023-02-23T14:46:58.310Z,100562.47
2023-02-23T14:49:31.862Z,100557.53
2023-02-23T14:52:05.759Z,100565.84
2023-02-23T14:54:35.286Z,100556.41
2023-02-23T14:57:04.666Z,100551.78
2023-02-23T14:59:39.727Z,100556.34
2023-02-23T15:02:13.523Z,100549.44
2023-02-23T15:04:43.676Z,100560.63
2023-02-23T15:07:24.830Z,100553.03
2023-02-23T15:09:53.817Z,100561.47
2023-02-23T15:12:26.782Z,100560.81
2023-02-23T15:14:58.061Z,100560.63
2023-02-23T15:17:27.919Z,100567.19
2023-02-23T15:20:14.362Z,100559.81
2023-02-23T15:22:44.947Z,100556.19
2023-02-23T15:25:16.348Z,100566.28
2023-02-23T15:27:46.056Z,100561.25
2023-02-23T15:30:24.236Z,100564.22
2023-02-23T15:33:00.907Z,100567.91
2023-02-23T15:35:30.584Z,100564.22
2023-02-23T15:38:11.301Z,100548.50
2023-02-23T15:40:42.315Z,100551.22
2023-02-23T15:43:10.558Z,100556.41
2023-02-23T15:45:42.722Z,100553.94
2023-02-23T15:48:17.288Z,100552.53
2023-02-23T15:50:50.200Z,100553.94
2023-02-23T15:53:31.260Z,100555.66
2023-02-23T15:56:04.318Z,100558.31
2023-02-23T15:58:35.133Z,100553.75
2023-02-23T16:01:11.783Z,100555.38
2023-02-23T16:03:44.078Z,100552.94
2023-02-23T16:06:24.381Z,100554.59
2023-02-23T16:08:59.536Z,100553.53
2023-02-23T16:11:28.095Z,100556.03
2023-02-23T16:13:55.926Z,100552.34
2023-02-23T16:16:25.691Z,100547.63
2023-02-23T16:18:54.893Z,100547.00
2023-02-23T16:21:25.670Z,100544.53
2023-02-23T16:23:55.013Z,100550.09
2023-02-23T16:26:26.242Z,100560.72
2023-02-23T16:28:57.382Z,100548.19
2023-02-23T16:31:28.356Z,100549.47
2023-02-23T16:33:59.936Z,100544.75
2023-02-23T16:36:38.590Z,100541.25
2023-02-23T16:39:11.236Z,100550.31
2023-02-23T16:41:39.000Z,100553.38
2023-02-23T16:44:07.844Z,100548.59
2023-02-23T16:46:59.758Z,100544.91
2023-02-23T16:49:29.990Z,100556.81
2023-02-23T16:51:59.968Z,100557.69
2023-02-23T16:54:28.287Z,100558.28
2023-02-23T16:56:56.645Z,100566.66
2023-02-23T16:59:24.994Z,100561.06
2023-02-23T17:01:52.726Z,100566.59
2023-02-23T17:04:21.848Z,100569.34
2023-02-23T17:06:57.978Z,100564.38
2023-02-23T17:09:27.473Z,100568.78
2023-02-23T17:11:57.045Z,100578.31
2023-02-23T17:14:28.267Z,100574.69
2023-02-23T17:16:56.223Z,100571.63
2023-02-23T17:19:24.677Z,100574.22
2023-02-23T17:21:53.834Z,100572.41
2023-02-23T17:24:25.994Z,100579.44
2023-02-23T17:26:55.578Z,100576.53
2023-02-23T17:29:24.132Z,100578.19
2023-02-23T17:31:52.239Z,100585.97
2023-02-23T17:34:20.150Z,100581.38
2023-02-23T17:36:47.948Z,100584.13
2023-02-23T17:39:16.858Z,100584.13
2023-02-23T17:41:44.844Z,100592.88
2023-02-23T17:44:14.152Z,100591.03
2023-02-23T17:46:41.841Z,100598.25
2023-02-23T17:49:09.834Z,100583.91
2023-02-23T17:51:37.838Z,100587.97
2023-02-23T17:54:05.680Z,100587.97
2023-02-23T17:56:33.702Z,100586.81
2023-02-23T17:59:01.391Z,100586.59
2023-02-23T18:01:30.590Z,100596.66
2023-02-23T18:03:59.351Z,100602.81
2023-02-23T18:06:27.867Z,100597.66
2023-02-23T18:08:55.504Z,100601.00
2023-02-23T18:11:23.718Z,100600.78
2023-02-23T18:13:52.291Z,100594.44
2023-02-23T18:16:20.433Z,100592.06
2023-02-23T18:18:49.781Z,100600.66
2023-02-23T18:21:19.311Z,100594.94
2023-02-23T18:23:48.052Z,100597.84
2023-02-23T18:26:17.445Z,100594.47
2023-02-23T18:28:45.933Z,100594.59
2023-02-23T18:31:15.588Z,100599.00
2023-02-23T18:33:44.952Z,100605.63
2023-02-23T18:36:21.833Z,100599.13
2023-02-23T18:38:49.976Z,100599.94
2023-02-23T18:41:18.362Z,100605.28
2023-02-23T18:43:46.603Z,100597.50
2023-02-23T18:46:15.228Z,100601.56
2023-02-23T18:48:43.407Z,100601.91
2023-02-23T18:51:14.147Z,100615.41
2023-02-23T18:53:44.520Z,100615.56
2023-02-23T18:56:14.311Z,100617.66
2023-02-23T18:58:43.145Z,100619.56
2023-02-23T19:01:18.237Z,100603.63
2023-02-23T19:03:46.192Z,100607.97
2023-02-23T19:06:16.064Z,100616.19
2023-02-23T19:08:45.790Z,100613.84
2023-02-23T19:11:13.512Z,100611.13
2023-02-23T19:13:41.512Z,100615.53
2023-02-23T19:16:09.706Z,100613.03
2023-02-23T19:18:37.715Z,100626.44
2023-02-23T19:21:06.705Z,100626.94
2023-02-23T19:23:34.477Z,100628.69
2023-02-23T19:26:05.548Z,100632.22
2023-02-23T19:28:33.430Z,100633.91
2023-02-23T19:31:05.906Z,100631.69
2023-02-23T19:33:34.248Z,100626.44
2023-02-23T19:36:05.845Z,100628.59
2023-02-23T19:38:34.183Z,100631.63
2023-02-23T19:41:06.456Z,100629.41
2023-02-23T19:43:34.755Z,100630.03
2023-02-23T19:46:05.094Z,100626.38
2023-02-23T19:48:33.158Z,100629.06
2023-02-23T19:51:00.853Z,100629.06
2023-02-23T19:53:29.553Z,100633.50
2023-02-23T19:56:01.585Z,100640.13
2023-02-23T19:58:30.614Z,100636.00
2023-02-23T20:00:58.453Z,100635.00
2023-02-23T20:03:28.556Z,100643.56
2023-02-23T20:05:56.929Z,100642.34
2023-02-23T20:08:25.251Z,100640.06
2023-02-23T20:10:53.507Z,100648.84
2023-02-23T20:13:23.576Z,100649.78
2023-02-23T20:16:01.425Z,100648.47
2023-02-23T20:18:29.391Z,100650.81
2023-02-23T20:20:57.316Z,100649.16
2023-02-23T20:23:25.267Z,100652.09
2023-02-23T20:25:52.966Z,100653.03
2023-02-23T20:28:20.622Z,100653.84
2023-02-23T20:30:49.020Z,100651.00
2023-02-23T20:33:18.283Z,100654.94
2023-02-23T20:35:45.994Z,100648.72
2023-02-23T20:38:15.436Z,100658.28
2023-02-23T20:40:43.139Z,100655.56
2023-02-23T20:43:10.824Z,100649.97
2023-02-23T20:45:41.317Z,100652.47
2023-02-23T20:48:09.763Z,100646.91
2023-02-23T20:50:39.453Z,100657.66
2023-02-23T20:53:08.467Z,100654.53
2023-02-23T20:55:36.390Z,100645.66
2023-02-23T20:58:05.526Z,100649.78
2023-02-23T21:00:33.799Z,100653.09
2023-02-23T21:03:02.871Z,100647.94
2023-02-23T21:05:32.640Z,100648.38
2023-02-23T21:08:03.110Z,100639.16
2023-02-23T21:10:31.765Z,100635.59
2023-02-23T21:12:59.576Z,100643.13
2023-02-23T21:15:29.053Z,100631.66
2023-02-23T21:17:57.220Z,100632.13
2023-02-23T21:20:25.871Z,100635.31
2023-02-23T21:22:53.585Z,100636.84
2023-02-23T21:25:25.139Z,100636.91
2023-02-23T21:27:54.179Z,100627.13
2023-02-23T21:30:24.105Z,100621.31
2023-02-23T21:32:53.856Z,100623.69
2023-02-23T21:35:21.945Z,100628.94
2023-02-23T21:37:51.705Z,100628.72
2023-02-23T21:40:20.766Z,100634.38
2023-02-23T21:42:50.893Z,100636.38
2023-02-23T21:45:19.238Z,100634.56
2023-02-23T21:47:48.275Z,100631.44
2023-02-23T21:50:17.964Z,100631.44
2023-02-23T21:52:48.578Z,100622.91
2023-02-23T21:55:24.644Z,100634.38
2023-02-23T21:57:54.867Z,100627.72
2023-02-23T22:00:23.068Z,100629.41
2023-02-23T22:02:51.209Z,100633.13
2023-02-23T22:05:19.808Z,100628.34
2023-02-23T22:07:52.261Z,100620.13
2023-02-23T22:10:21.393Z,100628.56
2023-02-23T22:12:50.186Z,100618.75
2023-02-23T22:15:19.654Z,100622.16
2023-02-23T22:17:47.312Z,100616.19
2023-02-23T22:20:15.443Z,100611.22
2023-02-23T22:22:43.713Z,100612.13
2023-02-23T22:25:11.866Z,100616.34
2023-02-23T22:27:41.637Z,100613.97
2023-02-23T22:30:12.139Z,100613.47
2023-02-23T22:32:42.669Z,100617.16
2023-02-23T22:35:11.113Z,100617.91
2023-02-23T22:37:39.873Z,100615.22
2023-02-23T22:43:08.906Z,100599.09
2023-02-23T22:45:36.795Z,100601.16
2023-02-23T22:48:07.412Z,100597.56
2023-02-23T22:50:36.524Z,100605.97
2023-02-23T22:53:05.892Z,100597.31
2023-02-23T22:55:35.017Z,100604.19
2023-02-23T22:58:08.365Z,100598.38
2023-02-23T23:00:36.197Z,100598.38
2023-02-23T23:03:05.946Z,100588.34
2023-02-23T23:05:34.097Z,100595.44
2023-02-23T23:08:01.807Z,100593.53
2023-02-23T23:10:30.149Z,100584.25
2023-02-23T23:12:59.248Z,100589.56
2023-02-23T23:15:27.093Z,100589.88
2023-02-23T23:17:55.035Z,100582.66
2023-02-23T23:20:25.800Z,100582.31
2023-02-23T23:22:53.986Z,100576.03
2023-02-23T23:25:23.833Z,100577.06
2023-02-23T23:27:53.840Z,100582.88
2023-02-23T23:30:26.017Z,100573.78
2023-02-23T23:32:54.404Z,100571.44
2023-02-23T23:35:23.002Z,100580.06
2023-02-23T23:37:52.626Z,100571.91
2023-02-23T23:40:24.702Z,100568.47
2023-02-23T23:42:53.243Z,100569.25
2023-02-23T23:45:24.462Z,100566.53
2023-02-23T23:47:52.253Z,100566.41
2023-02-23T23:50:26.536Z,100557.09
2023-02-23T23:52:57.079Z,100556.59
2023-02-23T23:55:24.916Z,100550.00
2023-02-23T23:57:52.734Z,100545.84
